sensor_id;sensor_type;location;lat;lon;timestamp;temperature;humidity
3628;DHT22;1830;49.000;12.074;2022-08-03T00:02:10;21.20;99.90
3628;DHT22;1830;49.000;12.074;2022-08-03T00:04:37;21.20;99.90
3628;DHT22;1830;49.000;12.074;2022-08-03T00:07:04;21.20;99.90
3628;DHT22;1830;49.000;12.074;2022-08-03T00:09:30;21.20;99.90
3628;DHT22;1830;49.000;12.074;2022-08-03T00:11:57;21.20;99.90
3628;DHT22;1830;49.000;12.074;2022-08-03T00:14:24;21.20;99.90
3628;DHT22;1830;49.000;12.074;2022-08-03T00:16:51;21.10;99.90
3628;DHT22;1830;49.000;12.074;2022-08-03T00:19:19;21.10;99.90
3628;DHT22;1830;49.000;12.074;2022-08-03T00:21:46;21.10;99.90
3628;DHT22;1830;49.000;12.074;2022-08-03T00:24:12;21.10;99.90
3628;DHT22;1830;49.000;12.074;2022-08-03T00:26:39;21.10;99.90
3628;DHT22;1830;49.000;12.074;2022-08-03T00:29:06;21.00;99.90
3628;DHT22;1830;49.000;12.074;2022-08-03T00:31:33;21.00;99.90
3628;DHT22;1830;49.000;12.074;2022-08-03T00:33:59;21.10;99.90
3628;DHT22;1830;49.000;12.074;2022-08-03T00:36:27;21.00;99.90
3628;DHT22;1830;49.000;12.074;2022-08-03T00:38:55;21.00;99.90
3628;DHT22;1830;49.000;12.074;2022-08-03T00:41:21;21.00;99.90
3628;DHT22;1830;49.000;12.074;2022-08-03T00:43:48;21.00;99.90
3628;DHT22;1830;49.000;12.074;2022-08-03T00:46:15;21.00;99.90
3628;DHT22;1830;49.000;12.074;2022-08-03T00:48:42;20.90;99.90
3628;DHT22;1830;49.000;12.074;2022-08-03T00:51:09;20.80;99.90
3628;DHT22;1830;49.000;12.074;2022-08-03T00:53:37;20.80;99.90
3628;DHT22;1830;49.000;12.074;2022-08-03T00:56:04;20.80;99.90
3628;DHT22;1830;49.000;12.074;2022-08-03T00:58:31;20.80;99.90
3628;DHT22;1830;49.000;12.074;2022-08-03T01:00:57;20.80;99.90
3628;DHT22;1830;49.000;12.074;2022-08-03T01:03:24;20.80;99.90
3628;DHT22;1830;49.000;12.074;2022-08-03T01:05:55;20.70;99.90
3628;DHT22;1830;49.000;12.074;2022-08-03T01:08:30;20.70;99.90
3628;DHT22;1830;49.000;12.074;2022-08-03T01:11:09;20.70;99.90
3628;DHT22;1830;49.000;12.074;2022-08-03T01:13:48;20.70;99.90
3628;DHT22;1830;49.000;12.074;2022-08-03T01:16:20;20.60;99.90
3628;DHT22;1830;49.000;12.074;2022-08-03T01:18:53;20.60;99.90
3628;DHT22;1830;49.000;12.074;2022-08-03T01:24:21;20.60;99.90
3628;DHT22;1830;49.000;12.074;2022-08-03T01:27:01;20.50;99.90
3628;DHT22;1830;49.000;12.074;2022-08-03T01:29:51;20.60;99.90
3628;DHT22;1830;49.000;12.074;2022-08-03T01:32:25;20.60;99.90
3628;DHT22;1830;49.000;12.074;2022-08-03T01:34:58;20.50;99.90
3628;DHT22;1830;49.000;12.074;2022-08-03T01:37:31;20.50;99.90
3628;DHT22;1830;49.000;12.074;2022-08-03T01:40:01;20.50;99.90
3628;DHT22;1830;49.000;12.074;2022-08-03T01:42:29;20.40;99.90
3628;DHT22;1830;49.000;12.074;2022-08-03T01:44:59;20.40;99.90
3628;DHT22;1830;49.000;12.074;2022-08-03T01:47:27;20.40;99.90
3628;DHT22;1830;49.000;12.074;2022-08-03T01:49:55;20.40;99.90
3628;DHT22;1830;49.000;12.074;2022-08-03T01:52:23;20.40;99.90
3628;DHT22;1830;49.000;12.074;2022-08-03T01:54:51;20.40;99.90
3628;DHT22;1830;49.000;12.074;2022-08-03T01:57:19;20.30;99.90
3628;DHT22;1830;49.000;12.074;2022-08-03T01:59:48;20.30;99.90
3628;DHT22;1830;49.000;12.074;2022-08-03T02:02:18;20.30;99.90
3628;DHT22;1830;49.000;12.074;2022-08-03T02:04:46;20.20;99.90
3628;DHT22;1830;49.000;12.074;2022-08-03T02:07:14;20.20;99.90
3628;DHT22;1830;49.000;12.074;2022-08-03T02:09:44;20.20;99.90
3628;DHT22;1830;49.000;12.074;2022-08-03T02:12:13;20.10;99.90
3628;DHT22;1830;49.000;12.074;2022-08-03T02:14:42;20.00;99.90
3628;DHT22;1830;49.000;12.074;2022-08-03T02:17:11;20.00;99.90
3628;DHT22;1830;49.000;12.074;2022-08-03T02:19:41;20.00;99.90
3628;DHT22;1830;49.000;12.074;2022-08-03T02:22:10;20.00;99.90
3628;DHT22;1830;49.000;12.074;2022-08-03T02:24:37;20.00;99.90
3628;DHT22;1830;49.000;12.074;2022-08-03T02:27:09;19.90;99.90
3628;DHT22;1830;49.000;12.074;2022-08-03T02:29:39;19.90;99.90
3628;DHT22;1830;49.000;12.074;2022-08-03T02:32:11;19.90;99.90
3628;DHT22;1830;49.000;12.074;2022-08-03T02:34:44;19.90;99.90
3628;DHT22;1830;49.000;12.074;2022-08-03T02:37:12;19.90;99.90
3628;DHT22;1830;49.000;12.074;2022-08-03T02:39:40;19.90;99.90
3628;DHT22;1830;49.000;12.074;2022-08-03T02:42:09;19.90;99.90
3628;DHT22;1830;49.000;12.074;2022-08-03T02:44:37;19.90;99.90
3628;DHT22;1830;49.000;12.074;2022-08-03T02:47:08;19.80;99.90
3628;DHT22;1830;49.000;12.074;2022-08-03T02:49:36;19.80;99.90
3628;DHT22;1830;49.000;12.074;2022-08-03T02:52:08;19.80;99.90
3628;DHT22;1830;49.000;12.074;2022-08-03T02:54:35;19.70;99.90
3628;DHT22;1830;49.000;12.074;2022-08-03T02:57:05;19.70;99.90
3628;DHT22;1830;49.000;12.074;2022-08-03T02:59:33;19.70;99.90
3628;DHT22;1830;49.000;12.074;2022-08-03T03:02:01;19.70;99.90
3628;DHT22;1830;49.000;12.074;2022-08-03T03:04:29;19.70;99.90
3628;DHT22;1830;49.000;12.074;2022-08-03T03:06:57;19.70;99.90
3628;DHT22;1830;49.000;12.074;2022-08-03T03:09:25;19.70;99.90
3628;DHT22;1830;49.000;12.074;2022-08-03T03:11:53;19.70;99.90
3628;DHT22;1830;49.000;12.074;2022-08-03T03:14:20;19.60;99.90
3628;DHT22;1830;49.000;12.074;2022-08-03T03:16:49;19.60;99.90
3628;DHT22;1830;49.000;12.074;2022-08-03T03:19:18;19.60;99.90
3628;DHT22;1830;49.000;12.074;2022-08-03T03:21:46;19.60;99.90
3628;DHT22;1830;49.000;12.074;2022-08-03T03:24:13;19.50;99.90
3628;DHT22;1830;49.000;12.074;2022-08-03T03:26:42;19.50;99.90
3628;DHT22;1830;49.000;12.074;2022-08-03T03:29:10;19.50;99.90
3628;DHT22;1830;49.000;12.074;2022-08-03T03:31:37;19.50;99.90
3628;DHT22;1830;49.000;12.074;2022-08-03T03:34:04;19.50;99.90
3628;DHT22;1830;49.000;12.074;2022-08-03T03:36:32;19.40;99.90
3628;DHT22;1830;49.000;12.074;2022-08-03T03:38:59;19.40;99.90
3628;DHT22;1830;49.000;12.074;2022-08-03T03:41:26;19.30;99.90
3628;DHT22;1830;49.000;12.074;2022-08-03T03:43:54;19.30;99.90
3628;DHT22;1830;49.000;12.074;2022-08-03T03:46:21;19.30;99.90
3628;DHT22;1830;49.000;12.074;2022-08-03T03:48:48;19.30;99.90
3628;DHT22;1830;49.000;12.074;2022-08-03T03:51:15;19.30;99.90
3628;DHT22;1830;49.000;12.074;2022-08-03T03:53:53;19.30;99.90
3628;DHT22;1830;49.000;12.074;2022-08-03T03:56:20;19.30;99.90
3628;DHT22;1830;49.000;12.074;2022-08-03T03:58:47;19.20;99.90
3628;DHT22;1830;49.000;12.074;2022-08-03T04:01:16;19.20;99.90
3628;DHT22;1830;49.000;12.074;2022-08-03T04:03:43;19.20;99.90
3628;DHT22;1830;49.000;12.074;2022-08-03T04:06:10;19.20;99.90
3628;DHT22;1830;49.000;12.074;2022-08-03T04:08:54;19.20;99.90
3628;DHT22;1830;49.000;12.074;2022-08-03T04:11:40;19.20;99.90
3628;DHT22;1830;49.000;12.074;2022-08-03T04:14:12;19.20;99.90
3628;DHT22;1830;49.000;12.074;2022-08-03T04:16:43;19.20;99.90
3628;DHT22;1830;49.000;12.074;2022-08-03T04:19:16;19.10;99.90
3628;DHT22;1830;49.000;12.074;2022-08-03T04:21:47;19.10;99.90
3628;DHT22;1830;49.000;12.074;2022-08-03T04:24:15;19.10;99.90
3628;DHT22;1830;49.000;12.074;2022-08-03T04:26:43;19.20;99.90
3628;DHT22;1830;49.000;12.074;2022-08-03T04:29:12;19.20;99.90
3628;DHT22;1830;49.000;12.074;2022-08-03T04:31:41;19.20;99.90
3628;DHT22;1830;49.000;12.074;2022-08-03T04:34:09;19.20;99.90
3628;DHT22;1830;49.000;12.074;2022-08-03T04:36:39;19.20;99.90
3628;DHT22;1830;49.000;12.074;2022-08-03T04:39:15;19.30;99.90
3628;DHT22;1830;49.000;12.074;2022-08-03T04:41:44;19.20;99.90
3628;DHT22;1830;49.000;12.074;2022-08-03T04:44:12;19.30;99.90
3628;DHT22;1830;49.000;12.074;2022-08-03T04:46:39;19.30;99.90
3628;DHT22;1830;49.000;12.074;2022-08-03T04:49:10;19.30;99.90
3628;DHT22;1830;49.000;12.074;2022-08-03T04:51:37;19.30;99.90
3628;DHT22;1830;49.000;12.074;2022-08-03T04:54:05;19.30;99.90
3628;DHT22;1830;49.000;12.074;2022-08-03T04:56:33;19.30;99.90
3628;DHT22;1830;49.000;12.074;2022-08-03T04:58:59;19.30;99.90
3628;DHT22;1830;49.000;12.074;2022-08-03T05:01:26;19.30;99.90
3628;DHT22;1830;49.000;12.074;2022-08-03T05:03:53;19.30;99.90
3628;DHT22;1830;49.000;12.074;2022-08-03T05:06:21;19.40;99.90
3628;DHT22;1830;49.000;12.074;2022-08-03T05:08:49;19.40;99.90
3628;DHT22;1830;49.000;12.074;2022-08-03T05:11:16;19.40;99.90
3628;DHT22;1830;49.000;12.074;2022-08-03T05:13:43;19.40;99.90
3628;DHT22;1830;49.000;12.074;2022-08-03T05:16:10;19.50;99.90
3628;DHT22;1830;49.000;12.074;2022-08-03T05:18:38;19.50;99.90
3628;DHT22;1830;49.000;12.074;2022-08-03T05:21:05;19.50;99.90
3628;DHT22;1830;49.000;12.074;2022-08-03T05:23:33;19.50;99.90
3628;DHT22;1830;49.000;12.074;2022-08-03T05:26:00;19.50;99.90
3628;DHT22;1830;49.000;12.074;2022-08-03T05:28:27;19.60;99.90
3628;DHT22;1830;49.000;12.074;2022-08-03T05:30:54;19.60;99.90
3628;DHT22;1830;49.000;12.074;2022-08-03T05:33:21;19.70;99.90
3628;DHT22;1830;49.000;12.074;2022-08-03T05:35:47;19.80;99.90
3628;DHT22;1830;49.000;12.074;2022-08-03T05:38:14;19.80;99.90
3628;DHT22;1830;49.000;12.074;2022-08-03T05:40:42;19.80;99.90
3628;DHT22;1830;49.000;12.074;2022-08-03T05:43:09;19.90;99.90
3628;DHT22;1830;49.000;12.074;2022-08-03T05:45:36;19.90;99.90
3628;DHT22;1830;49.000;12.074;2022-08-03T05:48:04;19.90;99.90
3628;DHT22;1830;49.000;12.074;2022-08-03T05:50:31;20.00;99.90
3628;DHT22;1830;49.000;12.074;2022-08-03T05:52:58;20.00;99.90
3628;DHT22;1830;49.000;12.074;2022-08-03T05:55:25;20.00;99.90
3628;DHT22;1830;49.000;12.074;2022-08-03T05:57:53;20.10;99.90
3628;DHT22;1830;49.000;12.074;2022-08-03T06:00:19;20.10;99.90
3628;DHT22;1830;49.000;12.074;2022-08-03T06:02:46;20.20;99.90
3628;DHT22;1830;49.000;12.074;2022-08-03T06:05:13;20.20;99.90
3628;DHT22;1830;49.000;12.074;2022-08-03T06:07:40;20.30;99.90
3628;DHT22;1830;49.000;12.074;2022-08-03T06:10:08;20.30;99.90
3628;DHT22;1830;49.000;12.074;2022-08-03T06:12:35;20.30;99.90
3628;DHT22;1830;49.000;12.074;2022-08-03T06:15:03;20.40;99.90
3628;DHT22;1830;49.000;12.074;2022-08-03T06:17:30;20.50;99.90
3628;DHT22;1830;49.000;12.074;2022-08-03T06:19:57;20.60;99.90
3628;DHT22;1830;49.000;12.074;2022-08-03T06:22:24;20.60;99.90
3628;DHT22;1830;49.000;12.074;2022-08-03T06:24:51;20.60;99.90
3628;DHT22;1830;49.000;12.074;2022-08-03T06:27:17;20.70;99.90
3628;DHT22;1830;49.000;12.074;2022-08-03T06:29:48;20.70;99.90
3628;DHT22;1830;49.000;12.074;2022-08-03T06:32:16;20.80;99.90
3628;DHT22;1830;49.000;12.074;2022-08-03T06:34:43;20.80;99.90
3628;DHT22;1830;49.000;12.074;2022-08-03T06:37:10;20.90;99.90
3628;DHT22;1830;49.000;12.074;2022-08-03T06:39:36;20.90;99.90
3628;DHT22;1830;49.000;12.074;2022-08-03T06:42:03;21.00;99.90
3628;DHT22;1830;49.000;12.074;2022-08-03T06:44:30;21.10;99.90
3628;DHT22;1830;49.000;12.074;2022-08-03T06:46:57;21.10;99.90
3628;DHT22;1830;49.000;12.074;2022-08-03T06:49:25;21.10;99.90
3628;DHT22;1830;49.000;12.074;2022-08-03T06:51:52;21.20;99.90
3628;DHT22;1830;49.000;12.074;2022-08-03T06:54:19;21.20;99.90
3628;DHT22;1830;49.000;12.074;2022-08-03T06:56:48;21.30;99.90
3628;DHT22;1830;49.000;12.074;2022-08-03T06:59:15;21.30;99.90
3628;DHT22;1830;49.000;12.074;2022-08-03T07:01:42;21.30;99.90
3628;DHT22;1830;49.000;12.074;2022-08-03T07:04:09;21.40;99.90
3628;DHT22;1830;49.000;12.074;2022-08-03T07:06:37;21.40;99.90
3628;DHT22;1830;49.000;12.074;2022-08-03T07:09:05;21.50;99.90
3628;DHT22;1830;49.000;12.074;2022-08-03T07:11:32;21.50;99.90
3628;DHT22;1830;49.000;12.074;2022-08-03T07:13:58;21.50;99.90
3628;DHT22;1830;49.000;12.074;2022-08-03T07:16:26;21.60;99.90
3628;DHT22;1830;49.000;12.074;2022-08-03T07:18:53;21.70;99.90
3628;DHT22;1830;49.000;12.074;2022-08-03T07:21:20;21.80;99.90
3628;DHT22;1830;49.000;12.074;2022-08-03T07:23:48;21.80;99.90
3628;DHT22;1830;49.000;12.074;2022-08-03T07:26:15;21.90;99.90
3628;DHT22;1830;49.000;12.074;2022-08-03T07:28:42;22.00;99.90
3628;DHT22;1830;49.000;12.074;2022-08-03T07:31:08;22.10;99.90
3628;DHT22;1830;49.000;12.074;2022-08-03T07:33:35;22.20;99.90
3628;DHT22;1830;49.000;12.074;2022-08-03T07:36:02;22.20;99.90
3628;DHT22;1830;49.000;12.074;2022-08-03T07:38:29;22.30;99.90
3628;DHT22;1830;49.000;12.074;2022-08-03T07:40:57;22.40;99.90
3628;DHT22;1830;49.000;12.074;2022-08-03T07:43:24;22.50;99.90
3628;DHT22;1830;49.000;12.074;2022-08-03T07:45:51;22.60;99.90
3628;DHT22;1830;49.000;12.074;2022-08-03T07:48:18;22.60;99.90
3628;DHT22;1830;49.000;12.074;2022-08-03T07:50:45;22.70;99.90
3628;DHT22;1830;49.000;12.074;2022-08-03T07:53:12;22.80;99.90
3628;DHT22;1830;49.000;12.074;2022-08-03T07:55:39;22.80;99.90
3628;DHT22;1830;49.000;12.074;2022-08-03T07:58:08;22.90;99.90
3628;DHT22;1830;49.000;12.074;2022-08-03T08:00:37;23.00;99.90
3628;DHT22;1830;49.000;12.074;2022-08-03T08:03:04;23.00;99.90
3628;DHT22;1830;49.000;12.074;2022-08-03T08:05:31;23.10;99.90
3628;DHT22;1830;49.000;12.074;2022-08-03T08:07:58;23.20;99.90
3628;DHT22;1830;49.000;12.074;2022-08-03T08:10:25;23.20;99.90
3628;DHT22;1830;49.000;12.074;2022-08-03T08:12:52;23.30;99.90
3628;DHT22;1830;49.000;12.074;2022-08-03T08:15:21;23.40;99.90
3628;DHT22;1830;49.000;12.074;2022-08-03T08:17:49;23.50;99.90
3628;DHT22;1830;49.000;12.074;2022-08-03T08:20:19;23.50;99.90
3628;DHT22;1830;49.000;12.074;2022-08-03T08:22:46;23.60;99.90
3628;DHT22;1830;49.000;12.074;2022-08-03T08:25:13;23.60;99.90
3628;DHT22;1830;49.000;12.074;2022-08-03T08:27:45;23.70;99.90
3628;DHT22;1830;49.000;12.074;2022-08-03T08:30:13;23.80;99.90
3628;DHT22;1830;49.000;12.074;2022-08-03T08:32:42;23.90;99.90
3628;DHT22;1830;49.000;12.074;2022-08-03T08:35:09;24.00;99.90
3628;DHT22;1830;49.000;12.074;2022-08-03T08:37:37;24.20;99.90
3628;DHT22;1830;49.000;12.074;2022-08-03T08:40:06;24.20;99.90
3628;DHT22;1830;49.000;12.074;2022-08-03T08:42:33;24.30;99.90
3628;DHT22;1830;49.000;12.074;2022-08-03T08:45:00;24.40;99.90
3628;DHT22;1830;49.000;12.074;2022-08-03T08:47:30;24.30;99.90
3628;DHT22;1830;49.000;12.074;2022-08-03T08:49:59;24.50;99.90
3628;DHT22;1830;49.000;12.074;2022-08-03T08:52:28;24.60;99.90
3628;DHT22;1830;49.000;12.074;2022-08-03T08:54:57;24.70;99.90
3628;DHT22;1830;49.000;12.074;2022-08-03T08:57:28;24.70;99.90
3628;DHT22;1830;49.000;12.074;2022-08-03T08:59:56;24.80;99.90
3628;DHT22;1830;49.000;12.074;2022-08-03T09:02:23;24.80;99.90
3628;DHT22;1830;49.000;12.074;2022-08-03T09:04:50;24.90;99.90
3628;DHT22;1830;49.000;12.074;2022-08-03T09:07:18;24.90;99.90
3628;DHT22;1830;49.000;12.074;2022-08-03T09:09:45;25.00;99.90
3628;DHT22;1830;49.000;12.074;2022-08-03T09:12:12;25.00;99.90
3628;DHT22;1830;49.000;12.074;2022-08-03T09:14:39;25.10;99.90
3628;DHT22;1830;49.000;12.074;2022-08-03T09:17:06;25.20;99.90
3628;DHT22;1830;49.000;12.074;2022-08-03T09:19:34;25.30;99.90
3628;DHT22;1830;49.000;12.074;2022-08-03T09:22:09;25.40;99.90
3628;DHT22;1830;49.000;12.074;2022-08-03T09:24:53;25.50;99.90
3628;DHT22;1830;49.000;12.074;2022-08-03T09:27:21;25.50;99.90
3628;DHT22;1830;49.000;12.074;2022-08-03T09:29:50;25.70;99.90
3628;DHT22;1830;49.000;12.074;2022-08-03T09:32:19;25.90;99.70
3628;DHT22;1830;49.000;12.074;2022-08-03T09:34:47;25.90;99.50
3628;DHT22;1830;49.000;12.074;2022-08-03T09:37:15;25.80;98.90
3628;DHT22;1830;49.000;12.074;2022-08-03T09:39:45;25.90;99.00
3628;DHT22;1830;49.000;12.074;2022-08-03T09:42:13;26.00;99.30
3628;DHT22;1830;49.000;12.074;2022-08-03T09:44:43;26.00;98.80
3628;DHT22;1830;49.000;12.074;2022-08-03T09:47:11;26.10;98.60
3628;DHT22;1830;49.000;12.074;2022-08-03T09:49:39;26.10;97.80
3628;DHT22;1830;49.000;12.074;2022-08-03T09:52:14;26.30;96.50
3628;DHT22;1830;49.000;12.074;2022-08-03T09:54:43;26.20;96.30
3628;DHT22;1830;49.000;12.074;2022-08-03T09:57:20;26.20;96.80
3628;DHT22;1830;49.000;12.074;2022-08-03T09:59:48;26.40;95.60
3628;DHT22;1830;49.000;12.074;2022-08-03T10:02:20;26.30;95.20
3628;DHT22;1830;49.000;12.074;2022-08-03T10:04:48;26.50;95.70
3628;DHT22;1830;49.000;12.074;2022-08-03T10:07:17;26.60;95.00
3628;DHT22;1830;49.000;12.074;2022-08-03T10:09:53;26.60;93.80
3628;DHT22;1830;49.000;12.074;2022-08-03T10:12:20;26.60;93.60
3628;DHT22;1830;49.000;12.074;2022-08-03T10:14:47;26.80;94.50
3628;DHT22;1830;49.000;12.074;2022-08-03T10:17:14;26.80;94.40
3628;DHT22;1830;49.000;12.074;2022-08-03T10:19:40;26.80;94.20
3628;DHT22;1830;49.000;12.074;2022-08-03T10:22:11;27.00;93.50
3628;DHT22;1830;49.000;12.074;2022-08-03T10:24:48;27.10;92.10
3628;DHT22;1830;49.000;12.074;2022-08-03T10:27:18;27.10;92.20
3628;DHT22;1830;49.000;12.074;2022-08-03T10:29:49;27.20;92.30
3628;DHT22;1830;49.000;12.074;2022-08-03T10:32:20;27.30;91.90
3628;DHT22;1830;49.000;12.074;2022-08-03T10:34:49;27.20;91.50
3628;DHT22;1830;49.000;12.074;2022-08-03T10:37:18;27.40;90.20
3628;DHT22;1830;49.000;12.074;2022-08-03T10:39:48;27.50;90.70
3628;DHT22;1830;49.000;12.074;2022-08-03T10:42:22;27.50;90.90
3628;DHT22;1830;49.000;12.074;2022-08-03T10:44:54;27.50;91.40
3628;DHT22;1830;49.000;12.074;2022-08-03T10:47:22;27.50;91.20
3628;DHT22;1830;49.000;12.074;2022-08-03T10:49:49;27.60;91.60
3628;DHT22;1830;49.000;12.074;2022-08-03T10:52:16;27.90;91.40
3628;DHT22;1830;49.000;12.074;2022-08-03T10:54:44;28.10;91.00
3628;DHT22;1830;49.000;12.074;2022-08-03T10:57:44;28.10;89.80
3628;DHT22;1830;49.000;12.074;2022-08-03T11:00:12;28.20;89.30
3628;DHT22;1830;49.000;12.074;2022-08-03T11:03:13;28.30;89.60
3628;DHT22;1830;49.000;12.074;2022-08-03T11:05:41;28.40;89.80
3628;DHT22;1830;49.000;12.074;2022-08-03T11:08:28;28.60;89.30
3628;DHT22;1830;49.000;12.074;2022-08-03T11:10:58;28.80;88.90
3628;DHT22;1830;49.000;12.074;2022-08-03T11:13:28;28.90;87.80
3628;DHT22;1830;49.000;12.074;2022-08-03T11:16:00;29.00;88.00
3628;DHT22;1830;49.000;12.074;2022-08-03T11:18:28;29.10;88.10
3628;DHT22;1830;49.000;12.074;2022-08-03T11:20:56;29.20;87.30
3628;DHT22;1830;49.000;12.074;2022-08-03T11:23:40;29.10;86.00
3628;DHT22;1830;49.000;12.074;2022-08-03T11:26:12;29.20;86.20
3628;DHT22;1830;49.000;12.074;2022-08-03T11:28:42;29.20;86.00
3628;DHT22;1830;49.000;12.074;2022-08-03T11:34:21;29.50;84.30
3628;DHT22;1830;49.000;12.074;2022-08-03T11:37:17;29.70;83.20
3628;DHT22;1830;49.000;12.074;2022-08-03T11:39:46;29.70;81.60
3628;DHT22;1830;49.000;12.074;2022-08-03T11:42:41;29.80;81.20
3628;DHT22;1830;49.000;12.074;2022-08-03T11:45:13;30.10;81.30
3628;DHT22;1830;49.000;12.074;2022-08-03T11:47:41;30.20;79.60
3628;DHT22;1830;49.000;12.074;2022-08-03T11:50:09;30.20;78.60
3628;DHT22;1830;49.000;12.074;2022-08-03T11:52:40;30.20;78.20
3628;DHT22;1830;49.000;12.074;2022-08-03T11:55:15;30.10;77.60
3628;DHT22;1830;49.000;12.074;2022-08-03T11:57:43;30.30;76.20
3628;DHT22;1830;49.000;12.074;2022-08-03T12:00:29;30.30;75.50
3628;DHT22;1830;49.000;12.074;2022-08-03T12:03:03;30.50;74.20
3628;DHT22;1830;49.000;12.074;2022-08-03T12:05:42;30.70;75.10
3628;DHT22;1830;49.000;12.074;2022-08-03T12:08:09;31.00;73.50
3628;DHT22;1830;49.000;12.074;2022-08-03T12:10:37;31.10;72.50
3628;DHT22;1830;49.000;12.074;2022-08-03T12:13:05;31.20;70.60
3628;DHT22;1830;49.000;12.074;2022-08-03T12:15:35;31.20;70.10
3628;DHT22;1830;49.000;12.074;2022-08-03T12:18:11;31.20;70.40
3628;DHT22;1830;49.000;12.074;2022-08-03T12:20:39;31.30;68.90
3628;DHT22;1830;49.000;12.074;2022-08-03T12:23:07;31.30;66.40
3628;DHT22;1830;49.000;12.074;2022-08-03T12:25:34;31.30;66.70
3628;DHT22;1830;49.000;12.074;2022-08-03T12:28:10;31.50;67.90
3628;DHT22;1830;49.000;12.074;2022-08-03T12:30:39;31.60;67.20
3628;DHT22;1830;49.000;12.074;2022-08-03T12:33:17;31.70;67.60
3628;DHT22;1830;49.000;12.074;2022-08-03T12:35:49;31.70;67.40
3628;DHT22;1830;49.000;12.074;2022-08-03T12:38:22;31.80;67.70
3628;DHT22;1830;49.000;12.074;2022-08-03T12:41:00;32.00;67.80
3628;DHT22;1830;49.000;12.074;2022-08-03T12:43:27;32.10;67.90
3628;DHT22;1830;49.000;12.074;2022-08-03T12:46:09;32.10;65.90
3628;DHT22;1830;49.000;12.074;2022-08-03T12:48:36;32.20;64.70
3628;DHT22;1830;49.000;12.074;2022-08-03T12:51:09;32.30;64.70
3628;DHT22;1830;49.000;12.074;2022-08-03T12:53:36;32.30;65.30
3628;DHT22;1830;49.000;12.074;2022-08-03T12:56:04;32.30;64.00
3628;DHT22;1830;49.000;12.074;2022-08-03T12:58:32;32.30;64.50
3628;DHT22;1830;49.000;12.074;2022-08-03T13:01:00;32.40;63.70
3628;DHT22;1830;49.000;12.074;2022-08-03T13:03:28;32.40;63.20
3628;DHT22;1830;49.000;12.074;2022-08-03T13:05:55;32.50;62.20
3628;DHT22;1830;49.000;12.074;2022-08-03T13:08:24;32.60;62.20
3628;DHT22;1830;49.000;12.074;2022-08-03T13:10:51;32.40;60.40
3628;DHT22;1830;49.000;12.074;2022-08-03T13:15:59;32.50;59.80
3628;DHT22;1830;49.000;12.074;2022-08-03T13:18:28;32.60;60.20
3628;DHT22;1830;49.000;12.074;2022-08-03T13:20:54;32.80;60.40
3628;DHT22;1830;49.000;12.074;2022-08-03T13:23:21;32.70;59.60
3628;DHT22;1830;49.000;12.074;2022-08-03T13:25:48;32.60;59.30
3628;DHT22;1830;49.000;12.074;2022-08-03T13:28:15;32.70;59.80
3628;DHT22;1830;49.000;12.074;2022-08-03T13:30:41;32.90;60.30
3628;DHT22;1830;49.000;12.074;2022-08-03T13:33:08;32.90;60.00
3628;DHT22;1830;49.000;12.074;2022-08-03T13:35:37;32.90;58.80
3628;DHT22;1830;49.000;12.074;2022-08-03T13:38:03;32.90;59.70
3628;DHT22;1830;49.000;12.074;2022-08-03T13:40:30;33.20;60.20
3628;DHT22;1830;49.000;12.074;2022-08-03T13:42:59;33.10;59.00
3628;DHT22;1830;49.000;12.074;2022-08-03T13:45:25;33.10;58.80
3628;DHT22;1830;49.000;12.074;2022-08-03T13:47:53;33.20;59.40
3628;DHT22;1830;49.000;12.074;2022-08-03T13:50:20;33.20;59.50
3628;DHT22;1830;49.000;12.074;2022-08-03T13:52:48;33.30;59.00
3628;DHT22;1830;49.000;12.074;2022-08-03T13:55:15;33.50;59.30
3628;DHT22;1830;49.000;12.074;2022-08-03T13:57:42;33.60;58.70
3628;DHT22;1830;49.000;12.074;2022-08-03T14:00:09;33.50;57.90
3628;DHT22;1830;49.000;12.074;2022-08-03T14:02:36;33.60;58.20
3628;DHT22;1830;49.000;12.074;2022-08-03T14:05:04;33.60;57.50
3628;DHT22;1830;49.000;12.074;2022-08-03T14:07:31;33.50;57.50
3628;DHT22;1830;49.000;12.074;2022-08-03T14:09:59;33.40;56.90
3628;DHT22;1830;49.000;12.074;2022-08-03T14:12:26;33.40;57.70
3628;DHT22;1830;49.000;12.074;2022-08-03T14:14:53;33.40;57.40
3628;DHT22;1830;49.000;12.074;2022-08-03T14:17:19;33.40;57.70
3628;DHT22;1830;49.000;12.074;2022-08-03T14:19:46;33.50;57.80
3628;DHT22;1830;49.000;12.074;2022-08-03T14:22:13;33.50;57.60
3628;DHT22;1830;49.000;12.074;2022-08-03T14:24:40;33.60;57.70
3628;DHT22;1830;49.000;12.074;2022-08-03T14:27:08;33.50;57.70
3628;DHT22;1830;49.000;12.074;2022-08-03T14:29:35;33.30;57.00
3628;DHT22;1830;49.000;12.074;2022-08-03T14:32:02;33.40;57.80
3628;DHT22;1830;49.000;12.074;2022-08-03T14:34:28;33.30;58.60
3628;DHT22;1830;49.000;12.074;2022-08-03T14:36:55;33.20;57.60
3628;DHT22;1830;49.000;12.074;2022-08-03T14:39:22;33.20;57.70
3628;DHT22;1830;49.000;12.074;2022-08-03T14:41:49;33.20;57.50
3628;DHT22;1830;49.000;12.074;2022-08-03T14:44:17;33.10;57.40
3628;DHT22;1830;49.000;12.074;2022-08-03T14:46:44;33.10;57.30
3628;DHT22;1830;49.000;12.074;2022-08-03T14:49:10;33.10;57.30
3628;DHT22;1830;49.000;12.074;2022-08-03T14:51:37;33.00;57.30
3628;DHT22;1830;49.000;12.074;2022-08-03T14:54:04;33.10;58.10
3628;DHT22;1830;49.000;12.074;2022-08-03T14:56:31;32.90;57.60
3628;DHT22;1830;49.000;12.074;2022-08-03T14:58:57;32.80;57.10
3628;DHT22;1830;49.000;12.074;2022-08-03T15:01:26;32.70;58.20
3628;DHT22;1830;49.000;12.074;2022-08-03T15:03:52;32.70;57.40
3628;DHT22;1830;49.000;12.074;2022-08-03T15:06:19;32.50;57.30
3628;DHT22;1830;49.000;12.074;2022-08-03T15:08:46;32.50;56.90
3628;DHT22;1830;49.000;12.074;2022-08-03T15:11:14;32.40;57.20
3628;DHT22;1830;49.000;12.074;2022-08-03T15:13:41;32.40;58.00
3628;DHT22;1830;49.000;12.074;2022-08-03T15:16:08;32.50;58.20
3628;DHT22;1830;49.000;12.074;2022-08-03T15:18:36;32.40;57.80
3628;DHT22;1830;49.000;12.074;2022-08-03T15:21:03;32.30;57.80
3628;DHT22;1830;49.000;12.074;2022-08-03T15:23:30;32.20;57.60
3628;DHT22;1830;49.000;12.074;2022-08-03T15:25:56;32.40;58.10
3628;DHT22;1830;49.000;12.074;2022-08-03T15:28:23;32.30;57.80
3628;DHT22;1830;49.000;12.074;2022-08-03T15:30:51;32.30;57.70
3628;DHT22;1830;49.000;12.074;2022-08-03T15:33:18;32.10;57.60
3628;DHT22;1830;49.000;12.074;2022-08-03T15:35:46;32.00;57.40
3628;DHT22;1830;49.000;12.074;2022-08-03T15:38:14;32.10;58.10
3628;DHT22;1830;49.000;12.074;2022-08-03T15:40:41;32.00;58.10
3628;DHT22;1830;49.000;12.074;2022-08-03T15:43:07;32.00;58.00
3628;DHT22;1830;49.000;12.074;2022-08-03T15:45:34;31.90;58.20
3628;DHT22;1830;49.000;12.074;2022-08-03T15:48:01;31.80;58.30
3628;DHT22;1830;49.000;12.074;2022-08-03T15:50:28;31.80;58.40
3628;DHT22;1830;49.000;12.074;2022-08-03T15:52:56;31.90;58.40
3628;DHT22;1830;49.000;12.074;2022-08-03T15:55:23;31.90;58.40
3628;DHT22;1830;49.000;12.074;2022-08-03T15:57:50;31.70;57.70
3628;DHT22;1830;49.000;12.074;2022-08-03T16:00:17;31.70;58.30
3628;DHT22;1830;49.000;12.074;2022-08-03T16:02:43;31.70;58.70
3628;DHT22;1830;49.000;12.074;2022-08-03T16:05:10;31.70;58.50